Horseshoe Bay, Texas
Current Conditions -  °F | °C
As of 7:55 PM on Saturday 25 Oct 2014 (Local Time) from KDZB Reporting Station
Clear Clear  
Wind Chill: 72°   Ceiling: Unl
Heat Index: 72°   Visibility: 10mi
Dew Point: 56°   Wind: 3mph
Humidity: 57%   Direction: 150°SSE
Pressure: 30.09"   Gusts: NA
Location:  30.5928°N, 98.3476°W
Report Text: KDZB 260055Z AUTO 15003KT 10SM CLR 22/14 A3009 RMK AO2 T02230135
Loading
Personal Weather Stations






























Interactive Weather Map
Tropical Storm Tracking
New forecast layout! Learn more

10-Day Weather Forecast

Advertisements
Track Severe Weather on mobile